Skip to content
You are here: Gozo Weather
Gozo Weather Station for the very latest live weather conditions from Gozo and Malta
 
 TIME   TEMPERATURE   WINDSPEED   DIRECTION   HUMIDITY   BAROMETER   RAINFALL 
1:55 20.0°C (68.0°F) 24.1 kmh (15.0 mph) NNW 49% 1009.0hPa (29.80 inHg) 6.0mm (0.24 in.)
12:55 20.4°C (68.7 °F) 29.6 kmh (18.4 mph) N 47% 1009.0hPa (29.80 inHg) 6.0mm (0.24 in.)
11:48 20.1°C (68.2 °F) 31.5 kmh (19.6 mph) N 45% 1009.0hPa (29.80 inHg) 6.0mm (0.24 in.)
10:48 19.8°C (67.6 °F) 42.6 kmh (26.5 mph) N 44% 1009.0hPa (29.80 inHg) 6.0mm (0.24 in.)
9:46 19.5°C (67.1 °F) 42.6 kmh (26.5 mph) N 42% 1008.0hPa (29.77 inHg) 6.0mm (0.24 in.)
8:46 19.2°C (66.6 °F) 46.3 kmh (28.8 mph) WNW 46% 1007.0hPa (29.74 inHg) 6.0mm (0.24 in.)
7:46 18.7°C (65.7 °F) 38.9 kmh (24.2 mph) NNW 51% 1007.0hPa (29.74 inHg) 6.0mm (0.24 in.)
6:46 17.3°C (63.1 °F) 27.8 kmh (17.3 mph) N 61% 1006.0hPa (29.71 inHg) 6.0mm (0.24 in.)
5:46 17.2°C (63.0 °F) 16.7 kmh (10.4 mph) N 68% 1006.0hPa (29.71 inHg) 6.0mm (0.24 in.)
4:46 16.1°C (61.0 °F) 27.8 kmh (17.3 mph) NNW 75% 1006.0hPa (29.71 inHg) 6.0mm (0.24 in.)
3:46 15.8°C (60.4 °F) 20.4 kmh (12.7 mph) WNW 66% 1006.0hPa (29.71 inHg) 6.0mm (0.24 in.)
2:46 18.5°C (65.3 °F) 24.1 kmh (15.0 mph) N 58% 1007.0hPa (29.74 inHg) 0.0mm (0.00 in.)
1:46 18.9°C (66.0 °F) 14.8 kmh (9.2 mph) WNW 54% 1007.0hPa (29.74 inHg) 0.0mm (0.00 in.)
12:46 18.9°C (66.0 °F) 14.8 kmh (9.2 mph) NW 55% 1007.0hPa (29.74 inHg) 0.0mm (0.00 in.)
11:46 18.9°C (66.0 °F) 14.8 kmh (9.2 mph) NNW 57% 1008.0hPa (29.77 inHg) 0.0mm (0.00 in.)
10:39 18.2°C (64.8 °F) 18.5 kmh (11.5 mph) WNW 60% 1008.0hPa (29.77 inHg) 0.0mm (0.00 in.)
9:39 18.1°C (64.6 °F) 18.5 kmh (11.5 mph) WNW 57% 1008.0hPa (29.77 inHg) 0.0mm (0.00 in.)
8:39 19.0°C (66.2 °F) 14.8 kmh (9.2 mph) WSW 50% 1008.0hPa (29.77 inHg) 0.0mm (0.00 in.)
7:39 19.1°C (66.4 °F) 14.8 kmh (9.2 mph) WSW 51% 1008.0hPa (29.77 inHg) 0.0mm (0.00 in.)
6:36 19.1°C (66.4 °F) 16.7 kmh (10.4 mph) WSW 51% 1008.0hPa (29.77 inHg) 0.0mm (0.00 in.)
5:36 19.7°C (67.5 °F) 14.8 kmh (9.2 mph) W 50% 1009.0hPa (29.80 inHg) 0.0mm (0.00 in.)
4:36 20.7°C (69.3 °F) 16.7 kmh (10.4 mph) WNW 43% 1009.0hPa (29.80 inHg) 0.0mm (0.00 in.)
3:36 20.7°C (69.3 °F) 18.5 kmh (11.5 mph) SW 44% 1010.0hPa (29.83 inHg) 0.0mm (0.00 in.)
2:36 20.4°C (68.7 °F) 24.1 kmh (15.0 mph) N 43% 1010.0hPa (29.83 inHg) 0.0mm (0.00 in.)

You need the latest version of Flash Player to view some of our content.


Why not download and install the latest version now?
It will only take you a moment and will ensure that you can view all the latest flash designed websites.

Translate this page

Animated Satellite

Click per aprire http://www.gozo.ws/Animation.php
copyright 2014 EUMETSAT

European Lightning Activity


Please click image for full size

Sponsored Links